Time;durP1;ratioP1;P1;durP2;ratioP2;P2;SDS_P1;SDS_P2;PMS_P1;PMS_P2;Temp;Humidity;BMP_temperature;BMP_pressure;BME280_temperature;BME280_humidity;BME280_pressure;Samples;Min_cycle;Max_cycle;Signal;HPM_P1;HPM_P2
2021/12/30 00:00:10;;;;;;;28.83;9.52;;;11.80;90.40;;;;;;4995027;28;20112;-85
2021/12/30 00:02:36;;;;;;;24.17;8.68;;;11.80;90.40;;;;;;4992517;28;20504;-86
2021/12/30 00:05:02;;;;;;;21.08;7.93;;;11.90;90.50;;;;;;4991617;28;20073;-87
2021/12/30 00:07:29;;;;;;;20.08;7.45;;;11.90;90.40;;;;;;4989168;28;20022;-85
2021/12/30 00:09:54;;;;;;;23.50;9.15;;;12.00;90.40;;;;;;4992594;28;20034;-84
2021/12/30 00:12:20;;;;;;;24.55;8.75;;;12.00;90.40;;;;;;4992474;28;20040;-84
2021/12/30 00:14:46;;;;;;;18.63;7.60;;;12.00;90.40;;;;;;4990825;28;20070;-85
2021/12/30 00:17:11;;;;;;;21.65;9.10;;;12.10;90.40;;;;;;4994522;28;20143;-85
2021/12/30 00:19:37;;;;;;;26.92;10.05;;;12.10;90.40;;;;;;4999390;28;20023;-84
2021/12/30 00:22:03;;;;;;;31.65;11.52;;;12.10;90.30;;;;;;4984487;28;20117;-86
2021/12/30 00:24:29;;;;;;;31.85;11.45;;;12.10;90.30;;;;;;4992166;28;20482;-85
2021/12/30 00:26:54;;;;;;;21.52;8.85;;;12.10;90.40;;;;;;4999045;28;20084;-86
2021/12/30 00:29:20;;;;;;;24.67;9.57;;;12.10;90.40;;;;;;4992729;28;20099;-85
2021/12/30 00:31:46;;;;;;;21.13;8.85;;;12.20;90.40;;;;;;4992827;28;20721;-84
2021/12/30 00:34:12;;;;;;;28.05;12.57;;;12.20;90.40;;;;;;4990730;28;20123;-84
2021/12/30 00:36:37;;;;;;;21.45;9.45;;;12.20;90.40;;;;;;4990979;28;20492;-86
2021/12/30 00:39:03;;;;;;;23.30;9.52;;;12.20;90.40;;;;;;4994469;28;20034;-84
2021/12/30 00:41:29;;;;;;;25.40;10.45;;;12.20;90.40;;;;;;4991686;28;20022;-88
2021/12/30 00:43:54;;;;;;;24.05;10.38;;;12.20;90.40;;;;;;4990876;28;20516;-85
2021/12/30 00:46:20;;;;;;;24.80;8.90;;;12.20;90.40;;;;;;4987802;28;20034;-86
2021/12/30 00:48:45;;;;;;;27.05;10.07;;;12.30;90.40;;;;;;4993999;28;20114;-86
2021/12/30 00:51:11;;;;;;;23.05;10.15;;;12.30;90.40;;;;;;4987672;28;20035;-87
2021/12/30 00:53:37;;;;;;;21.00;8.32;;;12.30;90.40;;;;;;4992371;28;20077;-88
2021/12/30 00:56:03;;;;;;;26.17;9.85;;;12.30;90.40;;;;;;4981133;28;20018;-88
2021/12/30 00:58:29;;;;;;;25.75;9.45;;;12.30;90.40;;;;;;4985180;28;20096;-88
2021/12/30 01:00:54;;;;;;;28.58;9.85;;;12.30;90.40;;;;;;4983368;28;20058;-87
2021/12/30 01:03:21;;;;;;;25.55;9.43;;;12.30;90.40;;;;;;5001749;28;20030;-86
2021/12/30 01:05:47;;;;;;;20.40;9.02;;;12.20;90.50;;;;;;4989994;28;20255;-85
2021/12/30 01:08:13;;;;;;;22.40;8.30;;;12.30;90.50;;;;;;4988594;28;20110;-84
2021/12/30 01:10:41;;;;;;;24.75;8.60;;;12.30;90.50;;;;;;4994367;28;20019;-85
2021/12/30 01:13:14;;;;;;;23.50;8.20;;;12.30;90.50;;;;;;4990162;28;20355;-86
2021/12/30 01:21:26;;;;;;;23.00;7.53;;;12.40;90.40;;;;;;4990113;28;20045;-87
2021/12/30 01:23:52;;;;;;;20.52;6.57;;;12.50;90.60;;;;;;4996701;28;20038;-86
2021/12/30 01:26:18;;;;;;;21.77;7.88;;;12.50;90.40;;;;;;4991368;28;20027;-86
2021/12/30 01:28:44;;;;;;;19.45;6.30;;;12.50;90.40;;;;;;4994385;28;20030;-85
2021/12/30 01:31:10;;;;;;;18.92;5.82;;;12.50;90.40;;;;;;4990156;28;20018;-85
2021/12/30 01:33:38;;;;;;;17.80;6.00;;;12.60;90.40;;;;;;4986072;28;20603;-84
2021/12/30 01:36:04;;;;;;;24.67;7.30;;;12.60;90.30;;;;;;4990169;28;20030;-84
2021/12/30 01:38:30;;;;;;;26.35;8.30;;;12.60;90.30;;;;;;4988734;28;20117;-85
2021/12/30 01:40:59;;;;;;;21.70;7.15;;;12.60;90.30;;;;;;4995865;28;20101;-85
2021/12/30 01:43:25;;;;;;;18.27;6.45;;;12.60;90.30;;;;;;4991062;28;20097;-84
2021/12/30 01:45:51;;;;;;;16.17;5.68;;;12.60;90.40;;;;;;4987809;28;20465;-86
2021/12/30 01:48:16;;;;;;;23.70;7.72;;;12.70;90.40;;;;;;4984996;28;20018;-85
2021/12/30 01:50:42;;;;;;;16.45;6.03;;;12.70;90.30;;;;;;4991782;28;20371;-89
2021/12/30 01:53:08;;;;;;;21.85;6.50;;;12.70;90.30;;;;;;4990858;28;20147;-89
2021/12/30 01:55:35;;;;;;;17.15;6.35;;;12.70;90.30;;;;;;4990608;28;20068;-90
2021/12/30 01:58:02;;;;;;;15.77;6.25;;;12.80;90.30;;;;;;4992239;28;20018;-88
2021/12/30 02:00:28;;;;;;;17.77;6.88;;;12.80;90.30;;;;;;4989590;28;20033;-89
2021/12/30 02:02:54;;;;;;;18.80;6.65;;;12.80;90.30;;;;;;4992125;28;20022;-90
2021/12/30 02:05:20;;;;;;;18.70;6.88;;;12.80;90.30;;;;;;4984746;28;20043;-90
2021/12/30 02:07:46;;;;;;;18.25;7.55;;;12.90;90.30;;;;;;4978575;28;20050;-89
2021/12/30 02:10:14;;;;;;;23.52;8.45;;;12.90;90.30;;;;;;5005811;28;20033;-89
2021/12/30 02:12:41;;;;;;;18.27;7.65;;;12.90;90.30;;;;;;5001406;28;20493;-87
2021/12/30 02:15:11;;;;;;;19.90;7.25;;;12.90;90.30;;;;;;4992703;28;20076;-89
2021/12/30 02:17:37;;;;;;;22.20;8.00;;;12.90;90.30;;;;;;4999515;28;20473;-86
2021/12/30 02:20:43;;;;;;;19.45;7.38;;;13.00;90.40;;;;;;4998233;28;20033;-88
2021/12/30 02:23:09;;;;;;;24.25;9.23;;;13.10;90.40;;;;;;5007107;28;20116;-87
2021/12/30 02:25:35;;;;;;;24.33;9.45;;;13.10;90.30;;;;;;4999542;28;20037;-87
2021/12/30 02:28:06;;;;;;;23.63;10.02;;;13.00;90.30;;;;;;4993309;28;20462;-86
2021/12/30 02:30:31;;;;;;;23.45;9.10;;;13.10;90.40;;;;;;4991161;28;20026;-87
2021/12/30 02:32:57;;;;;;;32.35;10.40;;;13.10;90.40;;;;;;4997651;28;20361;-86
2021/12/30 02:35:22;;;;;;;21.60;8.20;;;13.10;90.40;;;;;;4987218;28;20033;-88
2021/12/30 02:37:50;;;;;;;23.27;9.23;;;13.10;90.40;;;;;;4994405;28;20472;-85
2021/12/30 02:40:24;;;;;;;22.13;8.65;;;13.10;90.40;;;;;;4979563;28;20481;-87
2021/12/30 02:42:49;;;;;;;32.45;11.98;;;13.10;90.50;;;;;;5000164;28;20041;-87
2021/12/30 02:45:15;;;;;;;19.67;8.32;;;13.10;90.50;;;;;;4994985;28;20042;-86
2021/12/30 02:47:41;;;;;;;25.30;8.18;;;13.20;90.50;;;;;;4984025;28;20019;-85
2021/12/30 02:50:06;;;;;;;24.75;8.50;;;13.20;90.50;;;;;;4988883;28;20030;-89
2021/12/30 02:52:32;;;;;;;27.80;10.18;;;13.20;90.50;;;;;;4987188;28;20477;-86
2021/12/30 02:54:57;;;;;;;22.10;8.90;;;13.20;90.50;;;;;;5000735;28;20026;-86
2021/12/30 02:57:25;;;;;;;19.60;7.55;;;13.20;90.50;;;;;;4999608;28;20033;-87
2021/12/30 02:59:51;;;;;;;19.92;7.93;;;13.30;90.50;;;;;;4999881;28;20025;-86
2021/12/30 03:02:17;;;;;;;18.98;6.97;;;13.30;90.50;;;;;;5003344;28;20034;-86
2021/12/30 03:04:42;;;;;;;24.48;8.80;;;13.30;90.40;;;;;;4998921;28;20579;-85
2021/12/30 03:07:08;;;;;;;25.90;8.85;;;13.40;90.40;;;;;;5001966;28;20029;-85
2021/12/30 03:09:33;;;;;;;24.40;8.93;;;13.30;90.40;;;;;;4989529;28;20616;-85
2021/12/30 03:11:59;;;;;;;22.13;7.75;;;13.30;90.40;;;;;;5001584;28;20049;-88
2021/12/30 03:14:26;;;;;;;19.85;7.60;;;13.30;90.40;;;;;;5003531;28;20043;-90
2021/12/30 03:16:52;;;;;;;20.73;8.15;;;13.40;90.40;;;;;;4992275;28;20018;-89
2021/12/30 03:19:18;;;;;;;11.30;5.05;;;13.40;90.40;;;;;;4996247;28;20092;-89
2021/12/30 03:21:43;;;;;;;17.05;7.05;;;13.40;90.40;;;;;;5001682;28;20034;-90
2021/12/30 03:24:09;;;;;;;16.45;6.55;;;13.40;90.40;;;;;;4999197;28;20478;-85
2021/12/30 03:26:35;;;;;;;14.98;6.45;;;13.40;90.40;;;;;;4997376;28;20026;-86
2021/12/30 03:29:01;;;;;;;13.80;6.72;;;13.40;90.30;;;;;;4996921;28;20026;-85
2021/12/30 03:31:27;;;;;;;13.48;6.20;;;13.40;90.30;;;;;;4997303;28;20038;-85
2021/12/30 03:33:52;;;;;;;13.60;5.88;;;13.40;90.30;;;;;;4998976;28;20030;-83
2021/12/30 03:36:19;;;;;;;17.15;6.50;;;13.50;90.30;;;;;;5004692;28;20010;-85
2021/12/30 03:38:48;;;;;;;14.43;7.20;;;13.50;90.30;;;;;;4997957;28;20035;-85
2021/12/30 03:41:17;;;;;;;14.25;7.25;;;13.50;90.30;;;;;;5001081;28;20560;-86
2021/12/30 03:43:43;;;;;;;14.15;7.20;;;13.50;90.30;;;;;;4996370;28;20041;-86
2021/12/30 03:46:09;;;;;;;15.60;7.30;;;13.50;90.20;;;;;;5004449;28;20029;-86
2021/12/30 03:48:41;;;;;;;19.08;8.43;;;13.40;90.30;;;;;;4997548;28;20076;-86
2021/12/30 03:51:10;;;;;;;13.75;7.18;;;13.40;90.30;;;;;;4990221;28;20115;-86
2021/12/30 03:53:39;;;;;;;13.82;7.03;;;13.40;90.30;;;;;;4982759;28;20386;-88
2021/12/30 03:56:09;;;;;;;9.88;6.20;;;13.40;90.40;;;;;;5000811;28;20053;-87
2021/12/30 03:58:35;;;;;;;9.57;6.00;;;13.40;90.40;;;;;;4998607;28;20034;-86
2021/12/30 04:01:02;;;;;;;10.30;5.25;;;13.40;90.40;;;;;;4993800;28;20027;-86
2021/12/30 04:03:27;;;;;;;8.60;5.20;;;13.40;90.40;;;;;;4995514;28;20034;-86
2021/12/30 04:05:53;;;;;;;9.20;4.95;;;13.40;90.40;;;;;;4998744;28;20045;-86
2021/12/30 04:08:18;;;;;;;8.85;5.78;;;13.50;90.40;;;;;;5001704;28;20040;-87
2021/12/30 04:10:44;;;;;;;8.27;5.90;;;13.40;90.40;;;;;;4996055;28;20038;-87
2021/12/30 04:13:09;;;;;;;14.50;8.02;;;13.50;90.40;;;;;;5004418;28;20518;-86
2021/12/30 04:15:35;;;;;;;12.30;6.65;;;13.40;90.30;;;;;;5004949;28;20033;-86
2021/12/30 04:18:00;;;;;;;11.82;7.30;;;13.40;90.40;;;;;;4982025;28;20587;-88
2021/12/30 04:20:26;;;;;;;9.98;6.43;;;13.40;90.30;;;;;;4997106;28;20377;-88
2021/12/30 04:22:51;;;;;;;12.57;6.90;;;13.40;90.40;;;;;;5002639;28;20081;-88
2021/12/30 04:25:17;;;;;;;10.30;6.10;;;13.40;90.40;;;;;;4998533;28;20034;-87
2021/12/30 04:27:44;;;;;;;13.15;7.07;;;13.40;90.40;;;;;;4983216;28;20022;-88
2021/12/30 04:30:11;;;;;;;9.82;6.63;;;13.50;90.40;;;;;;4989525;28;20057;-88
2021/12/30 04:32:37;;;;;;;10.02;5.85;;;13.50;90.40;;;;;;4994266;28;20022;-88
2021/12/30 04:35:04;;;;;;;12.15;7.20;;;13.50;90.40;;;;;;4999287;28;20029;-90
2021/12/30 04:37:30;;;;;;;11.57;5.93;;;13.50;90.40;;;;;;4996576;28;20038;-90
2021/12/30 04:39:55;;;;;;;10.00;6.10;;;13.60;90.40;;;;;;4994495;28;20025;-83
2021/12/30 04:42:21;;;;;;;11.85;8.05;;;13.60;90.30;;;;;;5002891;28;20030;-86
2021/12/30 04:44:48;;;;;;;8.98;5.05;;;13.60;90.30;;;;;;5002145;28;20038;-91
2021/12/30 04:47:15;;;;;;;6.30;4.35;;;13.50;90.40;;;;;;5005634;28;20044;-89
2021/12/30 04:49:40;;;;;;;8.93;5.30;;;13.50;90.40;;;;;;4994747;28;20018;-88
2021/12/30 04:52:06;;;;;;;7.68;4.93;;;13.50;90.50;;;;;;5008430;28;20109;-90
2021/12/30 04:54:32;;;;;;;6.75;4.25;;;13.50;90.50;;;;;;4985677;28;20038;-89
2021/12/30 04:56:57;;;;;;;6.13;3.83;;;13.50;90.60;;;;;;4999661;28;20023;-91
2021/12/30 04:59:23;;;;;;;4.60;3.10;;;13.50;90.60;;;;;;4992305;28;20022;-91
2021/12/30 05:01:48;;;;;;;6.18;3.28;;;13.60;90.60;;;;;;4993314;28;20034;-91
2021/12/30 05:04:14;;;;;;;4.78;3.42;;;13.50;90.60;;;;;;5009527;28;20436;-91
2021/12/30 05:06:40;;;;;;;7.38;4.78;;;13.60;90.60;;;;;;4997187;28;20351;-91
2021/12/30 05:09:08;;;;;;;3.88;3.08;;;13.60;90.60;;;;;;5001194;28;20456;-89
2021/12/30 05:11:36;;;;;;;6.20;3.90;;;13.60;90.70;;;;;;4993449;28;20480;-88
2021/12/30 05:14:03;;;;;;;4.35;3.30;;;13.50;90.70;;;;;;4991409;28;20038;-89
2021/12/30 05:16:29;;;;;;;3.55;2.72;;;13.60;90.70;;;;;;4999100;28;20038;-88
2021/12/30 05:18:57;;;;;;;4.28;3.30;;;13.60;90.70;;;;;;4992092;28;20034;-90
2021/12/30 05:21:22;;;;;;;2.75;2.50;;;13.60;90.70;;;;;;4994364;28;20030;-90
2021/12/30 05:23:48;;;;;;;2.90;2.30;;;13.60;90.70;;;;;;4998793;28;20050;-89
2021/12/30 05:26:16;;;;;;;3.75;2.72;;;13.70;90.70;;;;;;4994609;28;20477;-90
2021/12/30 05:28:44;;;;;;;3.30;2.80;;;13.60;90.70;;;;;;4999252;28;20593;-90
2021/12/30 05:31:10;;;;;;;2.40;1.77;;;13.60;90.70;;;;;;4985818;28;20097;-90
2021/12/30 05:33:35;;;;;;;1.80;1.70;;;13.70;90.70;;;;;;4988106;28;20410;-90
2021/12/30 05:36:01;;;;;;;2.15;1.80;;;13.70;90.70;;;;;;4983076;28;20035;-88
2021/12/30 05:38:26;;;;;;;1.80;1.70;;;13.70;90.70;;;;;;4997253;28;20061;-88
2021/12/30 05:40:52;;;;;;;1.80;1.70;;;13.70;90.70;;;;;;4999015;28;20030;-90
2021/12/30 05:43:18;;;;;;;1.90;1.48;;;13.80;90.70;;;;;;4994744;28;20061;-90
2021/12/30 05:45:43;;;;;;;1.67;1.55;;;13.80;90.70;;;;;;4994068;28;20474;-89
2021/12/30 05:48:09;;;;;;;1.98;1.70;;;13.80;90.60;;;;;;4992875;28;20026;-90
2021/12/30 05:50:36;;;;;;;2.03;1.73;;;13.80;90.60;;;;;;4992162;28;20038;-90
2021/12/30 05:53:01;;;;;;;2.30;1.83;;;13.80;90.60;;;;;;4996847;28;20014;-89
2021/12/30 05:55:28;;;;;;;2.03;1.83;;;13.80;90.60;;;;;;4986269;28;20462;-90
2021/12/30 05:57:55;;;;;;;2.15;1.80;;;13.80;90.70;;;;;;4992468;28;20037;-90
2021/12/30 06:00:22;;;;;;;2.22;1.98;;;13.70;90.70;;;;;;4992436;28;20052;-90
2021/12/30 06:02:48;;;;;;;1.90;1.70;;;13.70;90.80;;;;;;5009508;28;20025;-87
2021/12/30 06:05:14;;;;;;;5.10;3.90;;;13.80;90.80;;;;;;4989573;28;20045;-90
2021/12/30 06:07:40;;;;;;;4.22;3.25;;;13.70;90.90;;;;;;5004503;28;20067;-88
2021/12/30 06:10:06;;;;;;;5.72;3.80;;;13.70;91.00;;;;;;5001202;28;20171;-87
2021/12/30 06:12:32;;;;;;;6.90;5.03;;;13.70;91.10;;;;;;4996979;28;20551;-87
2021/12/30 06:14:58;;;;;;;4.80;4.07;;;13.70;91.10;;;;;;4994895;28;20149;-87
2021/12/30 06:17:23;;;;;;;6.20;4.25;;;13.70;91.10;;;;;;4989441;28;20039;-89
2021/12/30 06:19:49;;;;;;;5.60;4.00;;;13.80;91.10;;;;;;4996288;28;20038;-88
2021/12/30 06:22:15;;;;;;;6.30;4.80;;;13.70;91.10;;;;;;4997491;28;20034;-89
2021/12/30 06:24:41;;;;;;;7.80;6.75;;;13.80;91.10;;;;;;4998679;28;20128;-86
2021/12/30 06:27:07;;;;;;;10.23;8.15;;;13.80;91.10;;;;;;4997094;28;20036;-86
2021/12/30 06:29:34;;;;;;;9.43;7.75;;;13.80;91.10;;;;;;5010981;28;20583;-87
2021/12/30 06:32:00;;;;;;;8.75;6.88;;;13.70;91.10;;;;;;4991630;28;20026;-86
2021/12/30 06:34:25;;;;;;;9.48;8.07;;;13.80;91.20;;;;;;4979394;28;20371;-84
2021/12/30 06:36:51;;;;;;;10.23;8.05;;;13.80;91.20;;;;;;4990500;28;20025;-85
2021/12/30 06:39:16;;;;;;;10.35;8.68;;;13.80;91.20;;;;;;4996510;28;20035;-85
2021/12/30 06:41:42;;;;;;;9.77;8.73;;;13.80;91.20;;;;;;4992658;28;20023;-86
2021/12/30 06:44:07;;;;;;;8.75;7.18;;;13.80;91.30;;;;;;4994656;28;20046;-85
2021/12/30 06:46:34;;;;;;;10.63;8.77;;;13.80;91.30;;;;;;4985635;28;20109;-86
2021/12/30 06:48:59;;;;;;;8.95;7.50;;;13.80;91.30;;;;;;4989728;28;20015;-87
2021/12/30 06:51:27;;;;;;;5.00;4.50;;;13.80;91.30;;;;;;4996910;28;20045;-86
2021/12/30 06:53:55;;;;;;;5.15;4.63;;;13.70;91.40;;;;;;4999320;28;20022;-87
2021/12/30 06:56:22;;;;;;;4.93;3.80;;;13.70;91.40;;;;;;4998301;28;20106;-87
2021/12/30 06:58:47;;;;;;;7.78;4.28;;;13.70;91.40;;;;;;4996760;28;20026;-88
2021/12/30 07:01:13;;;;;;;5.00;3.63;;;13.70;91.40;;;;;;4992469;28;20037;-87
2021/12/30 07:03:39;;;;;;;4.70;3.60;;;13.70;91.40;;;;;;4991739;28;20030;-89
2021/12/30 07:06:05;;;;;;;7.18;3.65;;;13.70;91.40;;;;;;4995019;28;20029;-89
2021/12/30 07:08:31;;;;;;;4.20;2.80;;;13.60;91.30;;;;;;4995115;28;20441;-87
2021/12/30 07:10:57;;;;;;;4.68;3.10;;;13.60;91.40;;;;;;4996840;28;20057;-87
2021/12/30 07:13:23;;;;;;;4.10;2.50;;;13.60;91.40;;;;;;4997571;28;20764;-86
2021/12/30 07:15:48;;;;;;;4.07;3.00;;;13.60;91.40;;;;;;4992226;28;20026;-89
2021/12/30 07:18:14;;;;;;;4.18;3.10;;;13.60;91.40;;;;;;4999257;28;20041;-88
2021/12/30 07:20:40;;;;;;;3.88;3.22;;;13.60;91.40;;;;;;4995573;28;20126;-88
2021/12/30 07:23:05;;;;;;;5.53;2.72;;;13.60;91.40;;;;;;4998473;28;20057;-89
2021/12/30 07:25:31;;;;;;;3.17;2.60;;;13.60;91.50;;;;;;5004971;28;20026;-84
2021/12/30 07:27:57;;;;;;;4.10;3.13;;;13.60;91.50;;;;;;4987490;28;20439;-87
2021/12/30 07:30:25;;;;;;;3.05;2.65;;;13.60;91.50;;;;;;4996620;28;20512;-87
2021/12/30 07:32:51;;;;;;;5.20;3.17;;;13.60;91.50;;;;;;4993910;28;20121;-85
2021/12/30 07:35:19;;;;;;;4.05;3.13;;;13.70;91.50;;;;;;4988838;28;20548;-87
2021/12/30 07:37:46;;;;;;;5.90;3.15;;;13.60;91.50;;;;;;4990753;28;20034;-87
2021/12/30 07:40:12;;;;;;;6.43;4.20;;;13.60;91.50;;;;;;4987559;28;20031;-89
2021/12/30 07:42:38;;;;;;;5.57;4.03;;;13.60;91.50;;;;;;4986337;28;20034;-86
2021/12/30 07:45:04;;;;;;;9.40;4.80;;;13.70;91.50;;;;;;4991656;28;20058;-90
2021/12/30 07:47:30;;;;;;;5.78;4.35;;;13.70;91.60;;;;;;4994412;28;20093;-90
2021/12/30 07:49:55;;;;;;;5.00;4.10;;;13.70;91.60;;;;;;5002785;28;20122;-90
2021/12/30 07:52:21;;;;;;;5.65;4.68;;;13.70;91.50;;;;;;4990285;28;20018;-87
2021/12/30 07:54:47;;;;;;;8.90;5.78;;;13.80;91.50;;;;;;4989263;28;20034;-84
2021/12/30 07:57:20;;;;;;;8.60;4.93;;;13.80;91.50;;;;;;4987892;28;20038;-87
2021/12/30 07:59:47;;;;;;;10.07;6.80;;;13.80;91.50;;;;;;4985890;28;20046;-82
2021/12/30 08:02:13;;;;;;;10.95;7.22;;;13.80;91.50;;;;;;4986837;28;20061;-82
2021/12/30 08:04:39;;;;;;;10.65;8.23;;;13.80;91.70;;;;;;4986790;28;20046;-82
2021/12/30 08:07:04;;;;;;;9.40;6.90;;;13.90;91.50;;;;;;4986297;28;20042;-83
2021/12/30 08:09:30;;;;;;;10.60;7.88;;;13.90;91.50;;;;;;4985170;28;20045;-82
2021/12/30 08:11:55;;;;;;;9.45;7.25;;;13.90;91.50;;;;;;4985537;28;20040;-84
2021/12/30 08:14:21;;;;;;;11.10;8.35;;;14.00;91.50;;;;;;4988664;28;20057;-84
2021/12/30 08:16:46;;;;;;;11.00;8.25;;;13.90;91.40;;;;;;4988901;28;20030;-84
2021/12/30 08:19:12;;;;;;;9.15;6.97;;;14.00;91.50;;;;;;4986406;28;20084;-83
2021/12/30 08:21:41;;;;;;;11.65;8.30;;;14.00;91.40;;;;;;4989205;28;20085;-83
2021/12/30 08:24:10;;;;;;;11.18;7.95;;;14.00;91.40;;;;;;4987032;28;20029;-82
2021/12/30 08:26:36;;;;;;;12.38;8.55;;;14.00;91.40;;;;;;4979325;28;20066;-82
2021/12/30 08:29:03;;;;;;;9.90;7.45;;;14.00;91.40;;;;;;4989801;28;20053;-82
2021/12/30 08:31:28;;;;;;;11.02;8.02;;;14.00;91.40;;;;;;4986033;28;20025;-81
2021/12/30 08:33:54;;;;;;;10.20;7.47;;;14.10;91.40;;;;;;4985000;28;20706;-81
2021/12/30 08:36:20;;;;;;;10.20;8.13;;;14.10;91.40;;;;;;4994998;28;20072;-82
2021/12/30 08:38:45;;;;;;;10.93;7.65;;;14.10;91.40;;;;;;4991540;28;20038;-81
2021/12/30 08:41:11;;;;;;;10.82;8.35;;;14.10;91.40;;;;;;4988164;28;21525;-83
2021/12/30 08:43:37;;;;;;;9.77;7.10;;;14.10;91.40;;;;;;4984557;28;20026;-80
2021/12/30 08:46:03;;;;;;;9.60;7.80;;;14.10;91.40;;;;;;4986231;28;20088;-81
2021/12/30 08:48:28;;;;;;;10.23;7.43;;;14.20;91.50;;;;;;4981739;28;20080;-81
2021/12/30 08:50:56;;;;;;;9.60;7.00;;;14.20;91.50;;;;;;4989977;28;20122;-82
2021/12/30 08:53:25;;;;;;;9.18;6.88;;;14.20;91.40;;;;;;4975228;28;20034;-83
2021/12/30 08:55:52;;;;;;;8.30;6.40;;;14.20;91.40;;;;;;4980986;28;20077;-83
2021/12/30 08:58:18;;;;;;;7.78;5.95;;;14.20;91.30;;;;;;4981500;28;20135;-81
2021/12/30 09:00:46;;;;;;;7.93;6.35;;;14.30;91.30;;;;;;4988529;28;20168;-81
2021/12/30 09:03:13;;;;;;;8.57;6.47;;;14.30;91.30;;;;;;4986184;28;20029;-79
2021/12/30 09:05:39;;;;;;;9.32;7.05;;;14.30;91.30;;;;;;4990659;28;20640;-80
2021/12/30 09:08:05;;;;;;;10.10;6.68;;;14.30;91.20;;;;;;4995037;28;20117;-80
2021/12/30 09:10:40;;;;;;;8.75;7.15;;;14.30;91.20;;;;;;4996329;28;20517;-79
2021/12/30 09:13:08;;;;;;;7.07;5.63;;;14.30;91.20;;;;;;4987356;28;20025;-81
2021/12/30 09:15:34;;;;;;;11.85;7.78;;;14.30;91.10;;;;;;4993693;28;20054;-80
2021/12/30 09:18:01;;;;;;;9.73;7.18;;;14.30;91.10;;;;;;4983431;28;20023;-80
2021/12/30 09:20:26;;;;;;;8.10;6.47;;;14.30;91.10;;;;;;4993129;28;20026;-80
2021/12/30 09:22:54;;;;;;;7.70;5.90;;;14.30;91.10;;;;;;4989900;28;20045;-81
2021/12/30 09:25:23;;;;;;;7.57;6.10;;;14.30;91.00;;;;;;4981138;28;20042;-79
2021/12/30 09:27:49;;;;;;;10.98;7.32;;;14.30;91.00;;;;;;4980774;28;20461;-79
2021/12/30 09:30:16;;;;;;;7.40;5.78;;;14.30;91.00;;;;;;4988051;28;20058;-80
2021/12/30 09:32:43;;;;;;;7.07;5.60;;;14.30;90.90;;;;;;4990068;28;20030;-81
2021/12/30 09:35:11;;;;;;;12.43;6.85;;;14.30;90.90;;;;;;4988886;28;20085;-81
2021/12/30 09:37:37;;;;;;;6.95;4.85;;;14.30;90.90;;;;;;4992855;28;20045;-80
2021/12/30 09:40:04;;;;;;;9.90;5.05;;;14.40;90.90;;;;;;4999511;28;20389;-81
2021/12/30 09:42:30;;;;;;;9.52;4.95;;;14.40;90.90;;;;;;5000007;28;20033;-83
2021/12/30 09:44:57;;;;;;;11.63;5.10;;;14.40;90.80;;;;;;4992096;28;20041;-87
2021/12/30 09:47:23;;;;;;;9.50;4.70;;;14.40;90.80;;;;;;4989166;28;20022;-81
2021/12/30 09:49:52;;;;;;;7.68;4.18;;;14.40;90.80;;;;;;4986520;28;20042;-81
2021/12/30 09:52:18;;;;;;;8.52;4.35;;;14.40;90.80;;;;;;4986325;28;20026;-82
2021/12/30 09:54:43;;;;;;;8.93;3.80;;;14.40;90.70;;;;;;4987569;28;20022;-81
2021/12/30 09:57:09;;;;;;;7.50;3.85;;;14.50;90.70;;;;;;4989745;28;20036;-83
2021/12/30 09:59:35;;;;;;;8.23;4.07;;;14.50;90.70;;;;;;4989456;28;20026;-83
2021/12/30 10:02:00;;;;;;;8.68;4.03;;;14.50;90.60;;;;;;4994604;28;20097;-81
2021/12/30 10:04:34;;;;;;;9.05;4.60;;;14.50;90.60;;;;;;4988720;28;20077;-84
2021/12/30 10:07:01;;;;;;;9.88;5.07;;;14.50;90.50;;;;;;4982613;28;20026;-84
2021/12/30 10:09:52;;;;;;;8.80;3.80;;;14.50;90.50;;;;;;4985466;28;20022;-82
2021/12/30 10:12:40;;;;;;;12.18;4.50;;;14.60;90.50;;;;;;4983855;28;20490;-81
2021/12/30 10:15:07;;;;;;;8.52;4.20;;;14.60;90.30;;;;;;4982271;28;20077;-80
2021/12/30 10:17:34;;;;;;;10.80;4.25;;;14.60;90.30;;;;;;4979515;28;20033;-79
2021/12/30 10:20:25;;;;;;;8.50;4.05;;;14.60;90.30;;;;;;4983690;28;20080;-79
2021/12/30 10:22:52;;;;;;;8.35;3.50;;;14.70;90.30;;;;;;4988006;28;20014;-80
2021/12/30 10:25:30;;;;;;;8.43;3.42;;;14.70;90.20;;;;;;4981935;28;20038;-81
2021/12/30 10:28:17;;;;;;;10.68;3.55;;;14.70;90.20;;;;;;4989405;28;20068;-80
2021/12/30 10:30:43;;;;;;;6.78;2.85;;;14.70;90.20;;;;;;4989035;28;20015;-80
2021/12/30 10:33:17;;;;;;;7.35;3.38;;;14.70;90.10;;;;;;4987861;28;20444;-80
2021/12/30 10:35:43;;;;;;;8.85;3.13;;;14.70;90.10;;;;;;4987787;28;20027;-80
2021/12/30 10:38:11;;;;;;;9.30;3.70;;;14.70;90.10;;;;;;4990980;28;20041;-83
2021/12/30 10:40:42;;;;;;;6.53;3.03;;;14.70;90.00;;;;;;4989970;28;20033;-79
2021/12/30 10:43:16;;;;;;;9.60;3.22;;;14.70;90.00;;;;;;4990718;28;20030;-81
2021/12/30 10:45:42;;;;;;;7.57;3.63;;;14.70;90.00;;;;;;5003772;28;20038;-81
2021/12/30 10:48:09;;;;;;;10.50;4.38;;;14.70;89.80;;;;;;5003649;28;20080;-80
2021/12/30 10:50:35;;;;;;;7.97;3.22;;;14.70;89.60;;;;;;4989077;28;20030;-80
2021/12/30 10:53:00;;;;;;;8.57;3.90;;;14.80;89.70;;;;;;4998937;28;20018;-80
2021/12/30 10:55:26;;;;;;;10.90;4.68;;;14.80;89.70;;;;;;4990857;28;20037;-80
2021/12/30 10:57:53;;;;;;;9.20;4.05;;;14.80;89.50;;;;;;5000214;28;20040;-82
2021/12/30 11:00:31;;;;;;;6.97;3.45;;;14.80;89.50;;;;;;4998423;28;20054;-79
2021/12/30 11:03:24;;;;;;;10.65;4.18;;;14.80;89.40;;;;;;4991187;28;20030;-80
2021/12/30 11:06:09;;;;;;;13.00;5.22;;;14.80;89.30;;;;;;4991470;28;20045;-79
2021/12/30 11:08:35;;;;;;;8.68;4.70;;;14.80;89.20;;;;;;5005088;28;20034;-78
2021/12/30 11:11:18;;;;;;;11.60;4.80;;;14.80;89.20;;;;;;4984815;28;20048;-79
2021/12/30 11:13:58;;;;;;;10.45;4.40;;;14.80;89.00;;;;;;4991265;28;20504;-79
2021/12/30 11:16:23;;;;;;;8.05;4.70;;;14.80;89.00;;;;;;4990828;28;20037;-80
2021/12/30 11:18:49;;;;;;;12.75;5.28;;;14.80;88.90;;;;;;4993240;28;20624;-78
2021/12/30 11:21:42;;;;;;;9.35;4.80;;;14.80;88.80;;;;;;4993169;28;20574;-78
2021/12/30 11:24:10;;;;;;;13.15;5.28;;;14.80;88.80;;;;;;4990574;28;20038;-78
2021/12/30 11:26:36;;;;;;;11.77;5.38;;;14.80;89.30;;;;;;4993334;28;20034;-79
2021/12/30 11:29:04;;;;;;;7.97;4.20;;;14.80;88.60;;;;;;4992817;28;20500;-79
2021/12/30 11:31:32;;;;;;;10.18;4.40;;;14.80;89.30;;;;;;4987722;28;20023;-79
2021/12/30 11:33:59;;;;;;;8.57;3.78;;;14.90;88.60;;;;;;4990257;28;20027;-78
2021/12/30 11:36:29;;;;;;;10.57;3.85;;;14.80;88.50;;;;;;4989872;28;20516;-78
2021/12/30 11:38:56;;;;;;;8.40;3.70;;;14.90;88.60;;;;;;4987710;28;20030;-82
2021/12/30 11:41:24;;;;;;;8.60;3.88;;;14.90;88.50;;;;;;4989107;28;20034;-81
2021/12/30 11:43:50;;;;;;;12.05;4.53;;;14.90;88.50;;;;;;4994422;28;20805;-81
2021/12/30 11:46:38;;;;;;;9.80;4.43;;;14.80;88.40;;;;;;4999079;28;20038;-81
2021/12/30 11:49:05;;;;;;;12.40;4.38;;;14.80;88.40;;;;;;4998930;28;20041;-81
2021/12/30 11:51:43;;;;;;;9.23;3.78;;;14.80;88.30;;;;;;4989163;28;20037;-82
2021/12/30 11:54:38;;;;;;;9.68;3.75;;;14.80;88.40;;;;;;4989394;28;20688;-81
2021/12/30 11:57:28;;;;;;;6.88;3.22;;;14.80;88.30;;;;;;4989121;28;20034;-82
2021/12/30 11:59:57;;;;;;;9.32;3.47;;;14.90;88.40;;;;;;4988679;28;20022;-81
2021/12/30 12:02:35;;;;;;;7.93;3.15;;;14.90;88.30;;;;;;4989684;28;20085;-81
2021/12/30 12:05:38;;;;;;;9.38;3.55;;;14.90;88.30;;;;;;4987919;28;20400;-80
2021/12/30 12:08:06;;;;;;;11.27;4.47;;;14.90;88.30;;;;;;4987496;28;20026;-81
2021/12/30 12:10:32;;;;;;;11.52;4.35;;;14.90;88.30;;;;;;4989702;28;20049;-82
2021/12/30 12:13:05;;;;;;;6.60;3.08;;;14.90;88.30;;;;;;4990808;28;20026;-84
2021/12/30 12:15:42;;;;;;;6.95;3.20;;;14.90;88.30;;;;;;4982925;28;20038;-82
2021/12/30 12:18:13;;;;;;;5.47;2.72;;;14.90;88.40;;;;;;4982152;28;20018;-81
2021/12/30 12:20:51;;;;;;;5.85;3.10;;;14.90;88.40;;;;;;4988768;28;20797;-79
2021/12/30 12:23:46;;;;;;;11.15;4.00;;;14.90;88.30;;;;;;4985904;28;20030;-84
2021/12/30 12:26:18;;;;;;;7.72;3.30;;;14.90;88.20;;;;;;4970379;28;20406;-81
2021/12/30 12:28:47;;;;;;;7.57;3.38;;;14.90;88.20;;;;;;4986900;28;20644;-82
2021/12/30 12:31:13;;;;;;;6.50;2.67;;;14.90;88.20;;;;;;4988512;28;20039;-80
2021/12/30 12:33:41;;;;;;;8.20;3.78;;;14.90;88.20;;;;;;4983873;28;20034;-81
2021/12/30 12:36:33;;;;;;;8.15;3.53;;;14.90;88.20;;;;;;4990960;28;20034;-84
2021/12/30 12:38:59;;;;;;;8.77;3.15;;;14.90;88.10;;;;;;4980470;28;20041;-84
2021/12/30 12:41:31;;;;;;;7.97;4.35;;;14.90;88.10;;;;;;4991159;28;20114;-80
2021/12/30 12:44:20;;;;;;;10.45;3.60;;;14.90;88.10;;;;;;5004971;28;20530;-81
2021/12/30 12:46:51;;;;;;;7.75;3.03;;;14.90;87.90;;;;;;4991525;28;20630;-83
2021/12/30 12:49:32;;;;;;;6.18;2.83;;;14.90;87.90;;;;;;4988741;28;20030;-82